DAL2201 KGPI-KSLC
Flight info
| Callsign | DAL2201 |
|---|---|
| Flight time | 1h 28m |
| Altitude | 33000 |
| Route | RIDDG2 MSO PIH SKEES6 |
| Aircraft | A320/M-SDE3FGHIRWY/LB1 |
Departure
| Time | 2026-04-24 22:31 |
|---|---|
| Airport | Glacier Park International Airport (KGPI) |
Arrival
| Time | 2026-04-24 23:59 |
|---|---|
| Airport | Salt Lake City International Airport (KSLC) |
| Time | Latitude | Longitude | Altitude | Speed | Heading |
|---|---|---|---|---|---|
| 2026-04-24 22:08 | 48.30741 | -114.25382 | 2978 ft | 0 kts | 106° |
| 2026-04-24 22:20 | 48.30745 | -114.25405 | 2978 ft | 2 kts | 106° |
| 2026-04-24 22:20 | 48.30750 | -114.25428 | 2978 ft | 2 kts | 106° |
| 2026-04-24 22:21 | 48.30754 | -114.25451 | 2978 ft | 2 kts | 106° |
| 2026-04-24 22:21 | 48.30754 | -114.25480 | 2978 ft | 3 kts | 61° |
| 2026-04-24 22:21 | 48.30744 | -114.25502 | 2978 ft | 3 kts | 40° |
| 2026-04-24 22:21 | 48.30744 | -114.25504 | 2978 ft | 2 kts | 34° |
| 2026-04-24 22:22 | 48.30757 | -114.25490 | 2978 ft | 2 kts | 34° |
| 2026-04-24 22:22 | 48.30764 | -114.25483 | 2978 ft | 0 kts | 34° |
| 2026-04-24 22:24 | 48.30770 | -114.25478 | 2978 ft | 4 kts | 27° |
| 2026-04-24 22:25 | 48.30801 | -114.25494 | 2978 ft | 6 kts | 317° |
| 2026-04-24 22:25 | 48.30821 | -114.25548 | 2978 ft | 6 kts | 281° |
| 2026-04-24 22:25 | 48.30790 | -114.25610 | 2978 ft | 9 kts | 215° |
| 2026-04-24 22:25 | 48.30745 | -114.25656 | 2978 ft | 7 kts | 214° |
| 2026-04-24 22:26 | 48.30712 | -114.25691 | 2978 ft | 5 kts | 214° |
| 2026-04-24 22:26 | 48.30672 | -114.25732 | 2978 ft | 9 kts | 214° |
| 2026-04-24 22:26 | 48.30626 | -114.25780 | 2978 ft | 9 kts | 215° |
| 2026-04-24 22:26 | 48.30561 | -114.25848 | 2978 ft | 12 kts | 215° |
| 2026-04-24 22:27 | 48.30491 | -114.25922 | 2978 ft | 13 kts | 215° |
| 2026-04-24 22:27 | 48.30418 | -114.25997 | 2978 ft | 13 kts | 214° |
| 2026-04-24 22:27 | 48.30341 | -114.26077 | 2978 ft | 14 kts | 214° |
| 2026-04-24 22:27 | 48.30258 | -114.26164 | 2978 ft | 15 kts | 215° |
| 2026-04-24 22:28 | 48.30173 | -114.26254 | 2978 ft | 14 kts | 215° |
| 2026-04-24 22:28 | 48.30097 | -114.26333 | 2978 ft | 13 kts | 215° |
| 2026-04-24 22:28 | 48.30023 | -114.26410 | 2980 ft | 12 kts | 215° |
| 2026-04-24 22:28 | 48.29952 | -114.26484 | 2980 ft | 12 kts | 214° |
| 2026-04-24 22:29 | 48.29842 | -114.26608 | 2984 ft | 7 kts | 243° |
| 2026-04-24 22:29 | 48.29853 | -114.26673 | 2984 ft | 7 kts | 307° |
| 2026-04-24 22:29 | 48.29901 | -114.26733 | 2982 ft | 11 kts | 2° |
| 2026-04-24 22:30 | 48.29931 | -114.26710 | 2982 ft | 0 kts | 36° |
| 2026-04-24 22:30 | 48.29987 | -114.26650 | 2979 ft | 41 kts | 35° |
| 2026-04-24 22:30 | 48.30422 | -114.26198 | 2980 ft | 109 kts | 35° |
| 2026-04-24 22:30 | 48.31224 | -114.25385 | 2989 ft | 163 kts | 25° |
| 2026-04-24 22:31 | 48.32128 | -114.24431 | 3673 ft | 155 kts | 26° |
| 2026-04-24 22:31 | 48.33041 | -114.23547 | 4191 ft | 158 kts | 27° |
| 2026-04-24 22:31 | 48.33959 | -114.22680 | 4755 ft | 162 kts | 25° |
| 2026-04-24 22:31 | 48.35008 | -114.21710 | 4914 ft | 190 kts | 25° |
| 2026-04-24 22:32 | 48.36317 | -114.21310 | 5159 ft | 204 kts | 344° |
| 2026-04-24 22:32 | 48.37552 | -114.22518 | 5539 ft | 221 kts | 311° |
| 2026-04-24 22:32 | 48.38476 | -114.24415 | 6267 ft | 228 kts | 304° |
| 2026-04-24 22:32 | 48.39310 | -114.26429 | 7100 ft | 231 kts | 303° |
| 2026-04-24 22:33 | 48.40143 | -114.28507 | 7920 ft | 234 kts | 303° |
| 2026-04-24 22:33 | 48.40989 | -114.30608 | 8750 ft | 236 kts | 303° |
| 2026-04-24 22:33 | 48.41858 | -114.32720 | 9578 ft | 239 kts | 303° |
| 2026-04-24 22:33 | 48.42750 | -114.34856 | 10336 ft | 242 kts | 303° |
| 2026-04-24 22:34 | 48.43364 | -114.37242 | 11052 ft | 250 kts | 281° |
| 2026-04-24 22:34 | 48.43293 | -114.39898 | 11736 ft | 265 kts | 260° |
| 2026-04-24 22:34 | 48.42414 | -114.42502 | 11962 ft | 297 kts | 236° |
| 2026-04-24 22:34 | 48.41049 | -114.44991 | 12154 ft | 321 kts | 234° |
| 2026-04-24 22:35 | 48.39572 | -114.47661 | 12399 ft | 340 kts | 234° |
| 2026-04-24 22:35 | 48.37898 | -114.50276 | 12974 ft | 353 kts | 221° |
| 2026-04-24 22:35 | 48.35768 | -114.52194 | 13629 ft | 363 kts | 204° |
| 2026-04-24 22:35 | 48.33304 | -114.53159 | 14244 ft | 371 kts | 186° |
| 2026-04-24 22:36 | 48.30711 | -114.53305 | 14841 ft | 375 kts | 182° |
| 2026-04-24 22:36 | 48.28087 | -114.53438 | 15410 ft | 379 kts | 186° |
| 2026-04-24 22:36 | 48.25496 | -114.54187 | 16012 ft | 380 kts | 199° |
| 2026-04-24 22:36 | 48.23062 | -114.55716 | 16612 ft | 380 kts | 212° |
| 2026-04-24 22:37 | 48.20885 | -114.57942 | 17190 ft | 378 kts | 225° |
| 2026-04-24 22:37 | 48.19053 | -114.60753 | 17808 ft | 377 kts | 235° |
| 2026-04-24 22:37 | 48.17322 | -114.63663 | 18395 ft | 384 kts | 227° |
| 2026-04-24 22:37 | 48.15123 | -114.66027 | 18882 ft | 396 kts | 210° |
| 2026-04-24 22:38 | 48.12520 | -114.67472 | 19375 ft | 403 kts | 193° |
| 2026-04-24 22:38 | 48.09713 | -114.67834 | 19881 ft | 408 kts | 177° |
| 2026-04-24 22:38 | 48.06919 | -114.67053 | 20405 ft | 411 kts | 161° |
| 2026-04-24 22:38 | 48.04205 | -114.65639 | 20936 ft | 414 kts | 160° |
| 2026-04-24 22:39 | 48.01497 | -114.64225 | 21695 ft | 408 kts | 160° |
| 2026-04-24 22:39 | 47.98836 | -114.62847 | 22567 ft | 402 kts | 160° |
| 2026-04-24 22:39 | 47.96195 | -114.61491 | 23290 ft | 400 kts | 161° |
| 2026-04-24 22:39 | 47.93567 | -114.60147 | 23921 ft | 398 kts | 161° |
| 2026-04-24 22:40 | 47.90947 | -114.58804 | 24478 ft | 396 kts | 161° |
| 2026-04-24 22:40 | 47.88343 | -114.57467 | 25015 ft | 395 kts | 161° |
| 2026-04-24 22:40 | 47.85777 | -114.56151 | 25531 ft | 395 kts | 161° |
| 2026-04-24 22:40 | 47.83183 | -114.54821 | 26057 ft | 394 kts | 161° |
| 2026-04-24 22:41 | 47.80595 | -114.53501 | 26583 ft | 393 kts | 161° |
| 2026-04-24 22:41 | 47.78009 | -114.52188 | 27103 ft | 392 kts | 161° |
| 2026-04-24 22:41 | 47.75430 | -114.50876 | 27608 ft | 392 kts | 161° |
| 2026-04-24 22:41 | 47.72848 | -114.49560 | 28105 ft | 392 kts | 162° |
| 2026-04-24 22:42 | 47.70271 | -114.48243 | 28582 ft | 391 kts | 162° |
| 2026-04-24 22:42 | 47.67697 | -114.46929 | 29070 ft | 391 kts | 162° |
| 2026-04-24 22:42 | 47.65125 | -114.45619 | 29562 ft | 390 kts | 162° |
| 2026-04-24 22:42 | 47.62557 | -114.44319 | 30020 ft | 390 kts | 162° |
| 2026-04-24 22:43 | 47.59988 | -114.43017 | 30432 ft | 389 kts | 162° |
| 2026-04-24 22:43 | 47.57422 | -114.41716 | 30812 ft | 389 kts | 162° |
| 2026-04-24 22:43 | 47.54858 | -114.40415 | 31200 ft | 389 kts | 162° |
| 2026-04-24 22:43 | 47.52291 | -114.39113 | 31495 ft | 391 kts | 162° |
| 2026-04-24 22:44 | 47.49694 | -114.37796 | 31635 ft | 398 kts | 162° |
| 2026-04-24 22:44 | 47.47066 | -114.36466 | 31893 ft | 400 kts | 162° |
| 2026-04-24 22:44 | 47.44425 | -114.35132 | 32255 ft | 401 kts | 163° |
| 2026-04-24 22:44 | 47.41777 | -114.33796 | 32432 ft | 406 kts | 162° |
| 2026-04-24 22:45 | 47.39068 | -114.32430 | 32574 ft | 414 kts | 162° |
| 2026-04-24 22:45 | 47.36360 | -114.31064 | 32798 ft | 417 kts | 162° |
| 2026-04-24 22:45 | 47.33608 | -114.29683 | 33068 ft | 419 kts | 163° |
| 2026-04-24 22:45 | 47.30844 | -114.28302 | 33138 ft | 420 kts | 163° |
| 2026-04-24 22:46 | 47.25311 | -114.25533 | 33145 ft | 419 kts | 163° |
| 2026-04-24 22:46 | 47.19784 | -114.22769 | 33115 ft | 419 kts | 163° |
| 2026-04-24 22:47 | 47.14265 | -114.20013 | 33146 ft | 419 kts | 163° |
| 2026-04-24 22:47 | 47.08746 | -114.17259 | 33095 ft | 418 kts | 163° |
| 2026-04-24 22:48 | 47.03241 | -114.14522 | 33079 ft | 418 kts | 163° |
| 2026-04-24 22:48 | 46.97738 | -114.11791 | 33065 ft | 417 kts | 163° |
| 2026-04-24 22:49 | 46.92229 | -114.09068 | 33061 ft | 417 kts | 163° |
| 2026-04-24 22:49 | 46.86720 | -114.06609 | 33064 ft | 416 kts | 167° |
| 2026-04-24 22:50 | 46.81112 | -114.04545 | 33069 ft | 416 kts | 168° |
| 2026-04-24 22:50 | 46.75484 | -114.02539 | 33083 ft | 416 kts | 168° |
| 2026-04-24 22:51 | 46.69870 | -114.00454 | 33109 ft | 415 kts | 167° |
| 2026-04-24 22:51 | 46.64286 | -113.98321 | 33126 ft | 414 kts | 167° |
| 2026-04-24 22:52 | 46.58744 | -113.96211 | 33137 ft | 413 kts | 167° |
| 2026-04-24 22:52 | 46.53175 | -113.94110 | 33139 ft | 413 kts | 167° |
| 2026-04-24 22:53 | 46.47601 | -113.92013 | 33134 ft | 412 kts | 167° |
| 2026-04-24 22:53 | 46.41962 | -113.89913 | 33133 ft | 425 kts | 167° |
| 2026-04-24 22:54 | 46.36199 | -113.87763 | 33145 ft | 428 kts | 167° |
| 2026-04-24 22:54 | 46.30419 | -113.85596 | 33130 ft | 429 kts | 167° |
| 2026-04-24 22:55 | 46.24663 | -113.83453 | 33122 ft | 429 kts | 167° |
| 2026-04-24 22:55 | 46.18876 | -113.81304 | 33113 ft | 429 kts | 167° |
| 2026-04-24 22:56 | 46.13098 | -113.79167 | 33109 ft | 428 kts | 167° |
| 2026-04-24 22:56 | 46.07319 | -113.77024 | 33115 ft | 428 kts | 167° |
| 2026-04-24 22:57 | 46.01576 | -113.74898 | 33101 ft | 428 kts | 167° |
| 2026-04-24 22:57 | 45.95806 | -113.72764 | 33101 ft | 428 kts | 167° |
| 2026-04-24 22:58 | 45.90039 | -113.70643 | 33089 ft | 428 kts | 167° |
| 2026-04-24 22:58 | 45.84253 | -113.68529 | 33084 ft | 429 kts | 167° |
| 2026-04-24 22:59 | 45.78461 | -113.66403 | 33083 ft | 430 kts | 167° |
| 2026-04-24 23:00 | 45.70743 | -113.63592 | 33090 ft | 430 kts | 167° |
| 2026-04-24 23:00 | 45.64945 | -113.61486 | 33085 ft | 430 kts | 167° |
| 2026-04-24 23:01 | 45.59137 | -113.59374 | 33077 ft | 431 kts | 167° |
| 2026-04-24 23:01 | 45.53326 | -113.57272 | 33082 ft | 431 kts | 167° |
| 2026-04-24 23:02 | 45.47517 | -113.55167 | 33067 ft | 430 kts | 167° |
| 2026-04-24 23:02 | 45.41711 | -113.53068 | 33080 ft | 430 kts | 167° |
| 2026-04-24 23:03 | 45.35912 | -113.50982 | 33065 ft | 430 kts | 167° |
| 2026-04-24 23:03 | 45.30111 | -113.48891 | 33061 ft | 430 kts | 166° |
| 2026-04-24 23:04 | 45.24353 | -113.46831 | 33050 ft | 429 kts | 167° |
| 2026-04-24 23:04 | 45.18550 | -113.44757 | 33053 ft | 429 kts | 167° |
| 2026-04-24 23:05 | 45.12757 | -113.42676 | 33067 ft | 428 kts | 167° |
| 2026-04-24 23:05 | 45.06982 | -113.40607 | 33065 ft | 427 kts | 167° |
| 2026-04-24 23:06 | 45.01264 | -113.38580 | 33055 ft | 426 kts | 167° |
| 2026-04-24 23:06 | 45.00620 | -113.38352 | 33054 ft | 425 kts | 167° |
| 2026-04-24 23:07 | 44.95903 | -113.36683 | 33048 ft | 425 kts | 167° |
| 2026-04-24 23:07 | 44.90178 | -113.34655 | 33042 ft | 424 kts | 167° |
| 2026-04-24 23:08 | 44.84442 | -113.32609 | 33042 ft | 424 kts | 167° |
| 2026-04-24 23:08 | 44.78757 | -113.30607 | 33037 ft | 424 kts | 167° |
| 2026-04-24 23:09 | 44.73031 | -113.28594 | 33026 ft | 424 kts | 168° |
| 2026-04-24 23:09 | 44.67299 | -113.26592 | 33026 ft | 425 kts | 168° |
| 2026-04-24 23:10 | 44.61542 | -113.24566 | 33012 ft | 426 kts | 168° |
| 2026-04-24 23:10 | 44.55790 | -113.22546 | 33017 ft | 426 kts | 168° |
| 2026-04-24 23:11 | 44.50023 | -113.20537 | 33009 ft | 428 kts | 169° |
| 2026-04-24 23:11 | 44.44260 | -113.18532 | 33016 ft | 430 kts | 169° |
| 2026-04-24 23:12 | 44.38444 | -113.16513 | 33018 ft | 431 kts | 169° |
| 2026-04-24 23:12 | 44.32621 | -113.14495 | 33019 ft | 431 kts | 169° |
| 2026-04-24 23:13 | 44.26792 | -113.12468 | 33018 ft | 432 kts | 169° |
| 2026-04-24 23:13 | 44.20955 | -113.10448 | 33011 ft | 431 kts | 169° |
| 2026-04-24 23:14 | 44.15151 | -113.08449 | 32992 ft | 431 kts | 169° |
| 2026-04-24 23:14 | 44.09328 | -113.06443 | 32987 ft | 431 kts | 169° |
| 2026-04-24 23:15 | 44.03510 | -113.04439 | 32990 ft | 431 kts | 169° |
| 2026-04-24 23:15 | 43.97676 | -113.02441 | 32981 ft | 431 kts | 169° |
| 2026-04-24 23:16 | 43.91846 | -113.00443 | 32982 ft | 431 kts | 169° |
| 2026-04-24 23:16 | 43.86031 | -112.98445 | 32972 ft | 430 kts | 169° |
| 2026-04-24 23:17 | 43.80220 | -112.96464 | 32939 ft | 430 kts | 170° |
| 2026-04-24 23:17 | 43.74412 | -112.94490 | 32953 ft | 429 kts | 170° |
| 2026-04-24 23:18 | 43.68607 | -112.92522 | 32968 ft | 429 kts | 170° |
| 2026-04-24 23:18 | 43.64770 | -112.91224 | 32956 ft | 428 kts | 170° |
| 2026-04-24 23:19 | 43.58980 | -112.89263 | 32946 ft | 427 kts | 172° |
| 2026-04-24 23:19 | 43.53218 | -112.87315 | 32967 ft | 426 kts | 172° |
| 2026-04-24 23:20 | 43.47471 | -112.85372 | 32973 ft | 425 kts | 172° |
| 2026-04-24 23:20 | 43.41730 | -112.83433 | 32970 ft | 425 kts | 173° |
| 2026-04-24 23:21 | 43.35995 | -112.81506 | 32978 ft | 424 kts | 173° |
| 2026-04-24 23:21 | 43.30260 | -112.79593 | 32966 ft | 424 kts | 173° |
| 2026-04-24 23:22 | 43.24490 | -112.77665 | 32955 ft | 434 kts | 174° |
| 2026-04-24 23:22 | 43.18544 | -112.75690 | 32964 ft | 449 kts | 173° |
| 2026-04-24 23:23 | 43.12451 | -112.73665 | 32958 ft | 452 kts | 173° |
| 2026-04-24 23:23 | 43.06337 | -112.71623 | 32934 ft | 452 kts | 174° |
| 2026-04-24 23:24 | 43.00232 | -112.69585 | 32951 ft | 451 kts | 174° |
| 2026-04-24 23:24 | 42.94130 | -112.67562 | 32952 ft | 451 kts | 174° |
| 2026-04-24 23:25 | 42.88031 | -112.65553 | 32928 ft | 451 kts | 175° |
| 2026-04-24 23:25 | 42.81973 | -112.63628 | 32937 ft | 449 kts | 176° |
| 2026-04-24 23:26 | 42.75874 | -112.61821 | 32941 ft | 448 kts | 177° |
| 2026-04-24 23:26 | 42.69771 | -112.60011 | 32893 ft | 448 kts | 178° |
| 2026-04-24 23:27 | 42.63689 | -112.58183 | 32932 ft | 448 kts | 178° |
| 2026-04-24 23:27 | 42.57601 | -112.56354 | 32940 ft | 447 kts | 178° |
| 2026-04-24 23:28 | 42.51565 | -112.54548 | 32934 ft | 447 kts | 178° |
| 2026-04-24 23:28 | 42.45500 | -112.52732 | 32928 ft | 447 kts | 178° |
| 2026-04-24 23:29 | 42.39427 | -112.50911 | 32918 ft | 447 kts | 178° |
| 2026-04-24 23:29 | 42.36391 | -112.50001 | 32729 ft | 448 kts | 177° |
| 2026-04-24 23:29 | 42.33355 | -112.49091 | 32431 ft | 446 kts | 178° |
| 2026-04-24 23:29 | 42.30328 | -112.48187 | 32105 ft | 443 kts | 178° |
| 2026-04-24 23:30 | 42.27334 | -112.47292 | 31531 ft | 440 kts | 178° |
| 2026-04-24 23:30 | 42.24357 | -112.46406 | 30985 ft | 436 kts | 178° |
| 2026-04-24 23:30 | 42.21406 | -112.45559 | 30478 ft | 429 kts | 182° |
| 2026-04-24 23:30 | 42.18486 | -112.45208 | 29905 ft | 414 kts | 191° |
| 2026-04-24 23:31 | 42.15652 | -112.45347 | 29325 ft | 404 kts | 194° |
| 2026-04-24 23:31 | 42.12862 | -112.45508 | 28893 ft | 398 kts | 193° |
| 2026-04-24 23:31 | 42.10145 | -112.45660 | 28408 ft | 394 kts | 193° |
| 2026-04-24 23:31 | 42.07438 | -112.45803 | 27997 ft | 386 kts | 194° |
| 2026-04-24 23:32 | 42.04763 | -112.45949 | 27482 ft | 383 kts | 194° |
| 2026-04-24 23:32 | 42.02120 | -112.46097 | 27051 ft | 378 kts | 194° |
| 2026-04-24 23:32 | 41.99505 | -112.46246 | 26623 ft | 374 kts | 194° |
| 2026-04-24 23:32 | 41.96918 | -112.46391 | 26155 ft | 371 kts | 193° |
| 2026-04-24 23:33 | 41.94353 | -112.46533 | 25786 ft | 366 kts | 193° |
| 2026-04-24 23:33 | 41.92672 | -112.46626 | 25521 ft | 364 kts | 193° |
| 2026-04-24 23:33 | 41.89310 | -112.46812 | 24985 ft | 359 kts | 194° |
| 2026-04-24 23:33 | 41.86823 | -112.46952 | 24571 ft | 356 kts | 194° |
| 2026-04-24 23:34 | 41.84362 | -112.47090 | 24172 ft | 352 kts | 194° |
| 2026-04-24 23:34 | 41.81928 | -112.47231 | 23774 ft | 349 kts | 194° |
| 2026-04-24 23:34 | 41.79505 | -112.47372 | 23341 ft | 347 kts | 194° |
| 2026-04-24 23:34 | 41.77099 | -112.47507 | 22856 ft | 344 kts | 193° |
| 2026-04-24 23:35 | 41.74727 | -112.47636 | 22482 ft | 339 kts | 193° |
| 2026-04-24 23:35 | 41.72378 | -112.47764 | 22057 ft | 336 kts | 193° |
| 2026-04-24 23:35 | 41.70048 | -112.47891 | 21646 ft | 333 kts | 193° |
| 2026-04-24 23:35 | 41.67983 | -112.48006 | 21278 ft | 332 kts | 193° |
| 2026-04-24 23:36 | 41.65679 | -112.48135 | 20867 ft | 331 kts | 193° |
| 2026-04-24 23:36 | 41.63385 | -112.48263 | 20450 ft | 329 kts | 193° |
| 2026-04-24 23:36 | 41.61106 | -112.48391 | 20041 ft | 327 kts | 193° |
| 2026-04-24 23:36 | 41.58865 | -112.48517 | 19640 ft | 326 kts | 193° |
| 2026-04-24 23:37 | 41.56595 | -112.48615 | 19200 ft | 328 kts | 188° |
| 2026-04-24 23:37 | 41.54301 | -112.48220 | 18809 ft | 339 kts | 175° |
| 2026-04-24 23:37 | 41.49991 | -112.45255 | 17939 ft | 364 kts | 147° |
| 2026-04-24 23:38 | 41.48085 | -112.43013 | 17445 ft | 365 kts | 146° |
| 2026-04-24 23:38 | 41.46203 | -112.40802 | 17161 ft | 359 kts | 146° |
| 2026-04-24 23:38 | 41.44273 | -112.38773 | 16739 ft | 350 kts | 155° |
| 2026-04-24 23:38 | 41.42159 | -112.37238 | 16363 ft | 341 kts | 163° |
| 2026-04-24 23:39 | 41.40036 | -112.35858 | 15976 ft | 339 kts | 162° |
| 2026-04-24 23:39 | 41.37925 | -112.34480 | 15626 ft | 337 kts | 162° |
| 2026-04-24 23:39 | 41.35826 | -112.33107 | 15258 ft | 335 kts | 162° |
| 2026-04-24 23:39 | 41.33737 | -112.31739 | 14895 ft | 333 kts | 162° |
| 2026-04-24 23:40 | 41.31658 | -112.30379 | 14526 ft | 332 kts | 161° |
| 2026-04-24 23:40 | 41.29584 | -112.29026 | 14161 ft | 331 kts | 162° |
| 2026-04-24 23:40 | 41.27522 | -112.27686 | 13793 ft | 330 kts | 161° |
| 2026-04-24 23:40 | 41.25462 | -112.26347 | 13402 ft | 329 kts | 161° |
| 2026-04-24 23:41 | 41.23417 | -112.25015 | 13028 ft | 326 kts | 161° |
| 2026-04-24 23:41 | 41.21383 | -112.23689 | 12823 ft | 326 kts | 160° |
| 2026-04-24 23:41 | 41.19346 | -112.22363 | 12745 ft | 326 kts | 160° |
| 2026-04-24 23:41 | 41.17310 | -112.21035 | 12633 ft | 326 kts | 160° |
| 2026-04-24 23:42 | 41.15302 | -112.19725 | 12506 ft | 326 kts | 160° |
| 2026-04-24 23:42 | 41.13267 | -112.18403 | 12375 ft | 325 kts | 160° |
| 2026-04-24 23:42 | 41.11212 | -112.17072 | 12249 ft | 324 kts | 160° |
| 2026-04-24 23:42 | 41.09213 | -112.15780 | 12120 ft | 323 kts | 160° |
| 2026-04-24 23:43 | 41.07148 | -112.14699 | 11996 ft | 316 kts | 171° |
| 2026-04-24 23:43 | 41.05011 | -112.14147 | 11871 ft | 312 kts | 176° |
| 2026-04-24 23:43 | 41.02867 | -112.13687 | 11733 ft | 310 kts | 176° |
| 2026-04-24 23:43 | 41.00775 | -112.13234 | 11610 ft | 299 kts | 176° |
| 2026-04-24 23:44 | 40.98755 | -112.12794 | 11431 ft | 290 kts | 176° |
| 2026-04-24 23:44 | 40.96793 | -112.12370 | 11252 ft | 283 kts | 177° |
| 2026-04-24 23:44 | 40.94858 | -112.11959 | 11084 ft | 281 kts | 176° |
| 2026-04-24 23:44 | 40.92932 | -112.11552 | 10982 ft | 280 kts | 176° |
| 2026-04-24 23:45 | 40.91035 | -112.11152 | 10993 ft | 280 kts | 176° |
| 2026-04-24 23:45 | 40.89113 | -112.10781 | 11002 ft | 279 kts | 179° |
| 2026-04-24 23:45 | 40.87185 | -112.10515 | 11002 ft | 278 kts | 180° |
| 2026-04-24 23:45 | 40.85258 | -112.10298 | 11007 ft | 277 kts | 181° |
| 2026-04-24 23:46 | 40.83337 | -112.10098 | 11005 ft | 277 kts | 180° |
| 2026-04-24 23:46 | 40.81411 | -112.09896 | 11007 ft | 278 kts | 181° |
| 2026-04-24 23:46 | 40.79487 | -112.09686 | 11010 ft | 277 kts | 180° |
| 2026-04-24 23:46 | 40.77557 | -112.09472 | 11002 ft | 278 kts | 180° |
| 2026-04-24 23:47 | 40.75633 | -112.09254 | 10998 ft | 277 kts | 180° |
| 2026-04-24 23:47 | 40.73763 | -112.09031 | 11005 ft | 262 kts | 180° |
| 2026-04-24 23:47 | 40.71978 | -112.08812 | 11009 ft | 255 kts | 180° |
| 2026-04-24 23:47 | 40.70207 | -112.08598 | 11014 ft | 255 kts | 180° |
| 2026-04-24 23:48 | 40.68438 | -112.08387 | 11017 ft | 255 kts | 180° |
| 2026-04-24 23:48 | 40.66671 | -112.08174 | 11020 ft | 255 kts | 181° |
| 2026-04-24 23:48 | 40.64902 | -112.07964 | 11019 ft | 255 kts | 181° |
| 2026-04-24 23:48 | 40.63736 | -112.07827 | 11021 ft | 255 kts | 181° |
| 2026-04-24 23:49 | 40.61970 | -112.07617 | 11015 ft | 255 kts | 180° |
| 2026-04-24 23:49 | 40.60202 | -112.07404 | 11023 ft | 255 kts | 180° |
| 2026-04-24 23:49 | 40.58436 | -112.07189 | 11015 ft | 255 kts | 180° |
| 2026-04-24 23:49 | 40.56087 | -112.06901 | 10702 ft | 255 kts | 181° |
| 2026-04-24 23:50 | 40.54900 | -112.06757 | 10543 ft | 252 kts | 181° |
| 2026-04-24 23:50 | 40.53172 | -112.06546 | 10297 ft | 247 kts | 181° |
| 2026-04-24 23:50 | 40.51473 | -112.06338 | 10050 ft | 242 kts | 180° |
| 2026-04-24 23:50 | 40.49834 | -112.06140 | 9810 ft | 237 kts | 180° |
| 2026-04-24 23:51 | 40.48214 | -112.05821 | 9552 ft | 237 kts | 164° |
| 2026-04-24 23:51 | 40.46858 | -112.04576 | 9287 ft | 245 kts | 131° |
| 2026-04-24 23:51 | 40.46155 | -112.02538 | 9056 ft | 249 kts | 102° |
| 2026-04-24 23:51 | 40.45934 | -112.00282 | 8972 ft | 247 kts | 97° |
| 2026-04-24 23:52 | 40.45797 | -111.98026 | 8995 ft | 249 kts | 95° |
| 2026-04-24 23:52 | 40.45828 | -111.95757 | 8989 ft | 251 kts | 72° |
| 2026-04-24 23:52 | 40.46761 | -111.93884 | 9002 ft | 246 kts | 32° |
| 2026-04-24 23:52 | 40.48308 | -111.93190 | 9003 ft | 232 kts | 350° |
| 2026-04-24 23:53 | 40.49771 | -111.93804 | 9010 ft | 217 kts | 328° |
| 2026-04-24 23:53 | 40.51217 | -111.94402 | 9003 ft | 224 kts | 352° |
| 2026-04-24 23:53 | 40.52786 | -111.94491 | 8981 ft | 226 kts | 351° |
| 2026-04-24 23:53 | 40.54350 | -111.94641 | 8748 ft | 225 kts | 351° |
| 2026-04-24 23:54 | 40.55898 | -111.94818 | 8465 ft | 223 kts | 348° |
| 2026-04-24 23:54 | 40.57442 | -111.94998 | 8166 ft | 222 kts | 351° |
| 2026-04-24 23:54 | 40.58978 | -111.95175 | 7869 ft | 221 kts | 348° |
| 2026-04-24 23:54 | 40.60503 | -111.95351 | 7585 ft | 220 kts | 350° |
| 2026-04-24 23:55 | 40.62010 | -111.95524 | 7339 ft | 215 kts | 352° |
| 2026-04-24 23:55 | 40.63466 | -111.95691 | 7035 ft | 204 kts | 352° |
| 2026-04-24 23:55 | 40.64834 | -111.95849 | 6772 ft | 191 kts | 354° |
| 2026-04-24 23:55 | 40.66095 | -111.95995 | 6531 ft | 174 kts | 354° |
| 2026-04-24 23:56 | 40.67253 | -111.96130 | 6303 ft | 164 kts | 353° |
| 2026-04-24 23:56 | 40.68361 | -111.96258 | 6104 ft | 158 kts | 354° |
| 2026-04-24 23:56 | 40.69421 | -111.96381 | 5916 ft | 152 kts | 352° |
| 2026-04-24 23:56 | 40.70462 | -111.96501 | 5714 ft | 151 kts | 352° |
| 2026-04-24 23:57 | 40.71498 | -111.96621 | 5498 ft | 148 kts | 351° |
| 2026-04-24 23:57 | 40.72515 | -111.96738 | 5288 ft | 145 kts | 351° |
| 2026-04-24 23:57 | 40.73522 | -111.96855 | 5071 ft | 145 kts | 353° |
| 2026-04-24 23:57 | 40.74539 | -111.96973 | 4867 ft | 148 kts | 353° |
| 2026-04-24 23:58 | 40.75545 | -111.97086 | 4642 ft | 147 kts | 353° |
| 2026-04-24 23:58 | 40.76561 | -111.97203 | 4453 ft | 145 kts | 351° |
| 2026-04-24 23:58 | 40.77568 | -111.97322 | 4299 ft | 145 kts | 352° |
| 2026-04-24 23:58 | 40.78506 | -111.97439 | 4233 ft | 121 kts | 358° |
| 2026-04-24 23:59 | 40.79159 | -111.97511 | 4232 ft | 56 kts | 355° |
| 2026-04-24 23:59 | 40.79408 | -111.97562 | 4229 ft | 30 kts | 339° |
| 2026-04-24 23:59 | 40.79541 | -111.97714 | 4230 ft | 22 kts | 259° |
| 2026-04-24 23:59 | 40.79453 | -111.97763 | 4230 ft | 8 kts | 175° |
| 2026-04-25 00:00 | 40.79406 | -111.97758 | 4231 ft | 6 kts | 175° |
| 2026-04-25 00:00 | 40.79369 | -111.97754 | 4231 ft | 5 kts | 175° |
| 2026-04-25 00:00 | 40.79337 | -111.97750 | 4231 ft | 5 kts | 175° |
| 2026-04-25 00:00 | 40.79251 | -111.97740 | 4231 ft | 16 kts | 175° |
| 2026-04-25 00:01 | 40.79150 | -111.97728 | 4231 ft | 14 kts | 175° |
| 2026-04-25 00:01 | 40.79064 | -111.97718 | 4231 ft | 11 kts | 174° |
| 2026-04-25 00:01 | 40.78994 | -111.97710 | 4232 ft | 9 kts | 175° |
| 2026-04-25 00:01 | 40.78938 | -111.97704 | 4231 ft | 7 kts | 175° |
| 2026-04-25 00:02 | 40.78881 | -111.97697 | 4231 ft | 9 kts | 174° |
| 2026-04-25 00:02 | 40.78819 | -111.97690 | 4231 ft | 8 kts | 175° |
| 2026-04-25 00:02 | 40.78772 | -111.97701 | 4231 ft | 6 kts | 219° |
| 2026-04-25 00:02 | 40.78757 | -111.97742 | 4231 ft | 5 kts | 264° |
| 2026-04-25 00:03 | 40.78753 | -111.97795 | 4231 ft | 7 kts | 264° |
| 2026-04-25 00:03 | 40.78748 | -111.97866 | 4231 ft | 9 kts | 265° |
| 2026-04-25 00:03 | 40.78742 | -111.97951 | 4231 ft | 10 kts | 265° |
| 2026-04-25 00:03 | 40.78736 | -111.98051 | 4231 ft | 12 kts | 265° |
| 2026-04-25 00:04 | 40.78728 | -111.98163 | 4231 ft | 13 kts | 265° |
| 2026-04-25 00:04 | 40.78720 | -111.98288 | 4231 ft | 14 kts | 265° |
| 2026-04-25 00:04 | 40.78710 | -111.98423 | 4231 ft | 15 kts | 265° |
| 2026-04-25 00:04 | 40.78701 | -111.98569 | 4231 ft | 16 kts | 265° |
| 2026-04-25 00:05 | 40.78691 | -111.98717 | 4231 ft | 17 kts | 264° |
| 2026-04-25 00:05 | 40.78681 | -111.98868 | 4231 ft | 16 kts | 265° |
| 2026-04-25 00:05 | 40.78671 | -111.99012 | 4231 ft | 14 kts | 265° |
| 2026-04-25 00:05 | 40.78666 | -111.99089 | 4231 ft | 6 kts | 265° |
| 2026-04-25 00:06 | 40.78642 | -111.99123 | 4231 ft | 5 kts | 188° |
| 2026-04-25 00:06 | 40.78615 | -111.99120 | 4231 ft | 3 kts | 175° |
| 2026-04-25 00:06 | 40.78598 | -111.99119 | 4231 ft | 2 kts | 175° |
| 2026-04-25 00:06 | 40.78590 | -111.99118 | 4231 ft | 1 kts | 175° |
| 2026-04-25 00:07 | 40.78587 | -111.99117 | 4231 ft | 0 kts | 175° |
| 2026-04-25 00:10 | 40.78586 | -111.99117 | 4231 ft | 0 kts | 175° |